sensor_id;sensor_type;location;lat;lon;timestamp;pressure;altitude;pressure_sealevel;temperature
13304;BMP280;6720;51.958;4.540;2024-01-25T00:01:21;102689.84;;;11.93
13304;BMP280;6720;51.958;4.540;2024-01-25T00:03:47;102686.22;;;11.76
13304;BMP280;6720;51.958;4.540;2024-01-25T00:06:13;102679.94;;;11.59
13304;BMP280;6720;51.958;4.540;2024-01-25T00:08:38;102685.22;;;11.61
13304;BMP280;6720;51.958;4.540;2024-01-25T00:11:04;102681.88;;;11.77
13304;BMP280;6720;51.958;4.540;2024-01-25T00:13:29;102667.66;;;11.55
13304;BMP280;6720;51.958;4.540;2024-01-25T00:15:55;102665.06;;;11.58
13304;BMP280;6720;51.958;4.540;2024-01-25T00:18:22;102669.47;;;11.61
13304;BMP280;6720;51.958;4.540;2024-01-25T00:20:47;102678.28;;;11.66
13304;BMP280;6720;51.958;4.540;2024-01-25T00:23:13;102671.16;;;11.54
13304;BMP280;6720;51.958;4.540;2024-01-25T00:25:38;102667.59;;;11.48
13304;BMP280;6720;51.958;4.540;2024-01-25T00:28:04;102663.94;;;11.27
13304;BMP280;6720;51.958;4.540;2024-01-25T00:30:29;102657.16;;;11.51
13304;BMP280;6720;51.958;4.540;2024-01-25T00:32:58;102660.59;;;11.45
13304;BMP280;6720;51.958;4.540;2024-01-25T00:35:24;102661.53;;;11.53
13304;BMP280;6720;51.958;4.540;2024-01-25T00:37:50;102666.81;;;11.56
13304;BMP280;6720;51.958;4.540;2024-01-25T00:40:16;102672.06;;;11.56
13304;BMP280;6720;51.958;4.540;2024-01-25T00:55:32;102674.56;;;11.43
13304;BMP280;6720;51.958;4.540;2024-01-25T00:57:58;102678.78;;;11.27
13304;BMP280;6720;51.958;4.540;2024-01-25T01:00:25;102676.19;;;11.30
13304;BMP280;6720;51.958;4.540;2024-01-25T01:02:54;102677.94;;;11.31
13304;BMP280;6720;51.958;4.540;2024-01-25T01:05:23;102685.66;;;11.16
13304;BMP280;6720;51.958;4.540;2024-01-25T01:07:48;102682.16;;;11.14
13304;BMP280;6720;51.958;4.540;2024-01-25T01:10:15;102690.13;;;11.26
13304;BMP280;6720;51.958;4.540;2024-01-25T01:12:40;102698.00;;;11.26
13304;BMP280;6720;51.958;4.540;2024-01-25T01:15:06;102707.56;;;11.22
13304;BMP280;6720;51.958;4.540;2024-01-25T01:17:31;102708.38;;;11.17
13304;BMP280;6720;51.958;4.540;2024-01-25T01:19:57;102709.25;;;11.16
13304;BMP280;6720;51.958;4.540;2024-01-25T01:22:22;102715.44;;;11.24
13304;BMP280;6720;51.958;4.540;2024-01-25T01:24:47;102717.13;;;11.16
13304;BMP280;6720;51.958;4.540;2024-01-25T01:27:13;102714.56;;;11.22
13304;BMP280;6720;51.958;4.540;2024-01-25T01:29:38;102720.66;;;11.21
13304;BMP280;6720;51.958;4.540;2024-01-25T01:32:04;102725.72;;;11.06
13304;BMP280;6720;51.958;4.540;2024-01-25T01:34:29;102722.28;;;11.07
13304;BMP280;6720;51.958;4.540;2024-01-25T01:36:55;102730.81;;;10.91
13304;BMP280;6720;51.958;4.540;2024-01-25T01:39:20;102736.16;;;11.00
13304;BMP280;6720;51.958;4.540;2024-01-25T01:41:48;102741.53;;;11.12
13304;BMP280;6720;51.958;4.540;2024-01-25T01:44:14;102751.09;;;11.07
13304;BMP280;6720;51.958;4.540;2024-01-25T01:46:40;102750.31;;;11.14
13304;BMP280;6720;51.958;4.540;2024-01-25T01:49:11;102757.34;;;11.18
13304;BMP280;6720;51.958;4.540;2024-01-25T01:51:37;102747.69;;;11.12
13304;BMP280;6720;51.958;4.540;2024-01-25T01:54:05;102751.91;;;11.01
13304;BMP280;6720;51.958;4.540;2024-01-25T01:56:31;102750.16;;;11.02
13304;BMP280;6720;51.958;4.540;2024-01-25T01:58:58;102749.19;;;10.94
13304;BMP280;6720;51.958;4.540;2024-01-25T02:01:24;102754.31;;;10.83
13304;BMP280;6720;51.958;4.540;2024-01-25T02:03:50;102751.91;;;11.00
13304;BMP280;6720;51.958;4.540;2024-01-25T02:06:16;102753.66;;;11.02
13304;BMP280;6720;51.958;4.540;2024-01-25T02:08:42;102744.91;;;11.02
13304;BMP280;6720;51.958;4.540;2024-01-25T02:11:11;102750.09;;;10.96
13304;BMP280;6720;51.958;4.540;2024-01-25T02:13:37;102751.72;;;10.85
13304;BMP280;6720;51.958;4.540;2024-01-25T02:16:03;102751.81;;;10.94
13304;BMP280;6720;51.958;4.540;2024-01-25T02:18:28;102737.56;;;10.72
13304;BMP280;6720;51.958;4.540;2024-01-25T02:20:54;102750.75;;;10.77
13304;BMP280;6720;51.958;4.540;2024-01-25T02:23:19;102748.97;;;10.74
13304;BMP280;6720;51.958;4.540;2024-01-25T02:25:45;102756.94;;;10.85
13304;BMP280;6720;51.958;4.540;2024-01-25T02:28:10;102755.09;;;10.78
13304;BMP280;6720;51.958;4.540;2024-01-25T02:30:35;102754.16;;;10.71
13304;BMP280;6720;51.958;4.540;2024-01-25T02:33:01;102760.09;;;10.60
13304;BMP280;6720;51.958;4.540;2024-01-25T02:35:26;102753.78;;;10.46
13304;BMP280;6720;51.958;4.540;2024-01-25T02:37:52;102760.19;;;10.66
13304;BMP280;6720;51.958;4.540;2024-01-25T02:40:18;102771.44;;;10.59
13304;BMP280;6720;51.958;4.540;2024-01-25T02:42:43;102764.34;;;10.52
13304;BMP280;6720;51.958;4.540;2024-01-25T02:45:09;102751.22;;;10.49
13304;BMP280;6720;51.958;4.540;2024-01-25T02:47:35;102753.75;;;10.41
13304;BMP280;6720;51.958;4.540;2024-01-25T02:50:01;102760.72;;;10.42
13304;BMP280;6720;51.958;4.540;2024-01-25T02:52:26;102760.69;;;10.39
13304;BMP280;6720;51.958;4.540;2024-01-25T02:54:52;102758.13;;;10.44
13304;BMP280;6720;51.958;4.540;2024-01-25T02:57:18;102762.50;;;10.45
13304;BMP280;6720;51.958;4.540;2024-01-25T02:59:43;102773.84;;;10.44
13304;BMP280;6720;51.958;4.540;2024-01-25T03:02:09;102775.53;;;10.42
13304;BMP280;6720;51.958;4.540;2024-01-25T03:04:34;102776.38;;;10.38
13304;BMP280;6720;51.958;4.540;2024-01-25T03:07:01;102771.88;;;10.31
13304;BMP280;6720;51.958;4.540;2024-01-25T03:09:26;102760.16;;;10.06
13304;BMP280;6720;51.958;4.540;2024-01-25T03:11:54;102771.38;;;10.01
13304;BMP280;6720;51.958;4.540;2024-01-25T03:14:20;102768.09;;;10.11
13304;BMP280;6720;51.958;4.540;2024-01-25T03:16:45;102767.22;;;10.12
13304;BMP280;6720;51.958;4.540;2024-01-25T03:19:11;102769.34;;;9.83
13304;BMP280;6720;51.958;4.540;2024-01-25T03:21:37;102766.59;;;9.74
13304;BMP280;6720;51.958;4.540;2024-01-25T03:24:02;102762.44;;;9.87
13304;BMP280;6720;51.958;4.540;2024-01-25T03:26:28;102773.00;;;9.93
13304;BMP280;6720;51.958;4.540;2024-01-25T03:28:53;102764.13;;;9.85
13304;BMP280;6720;51.958;4.540;2024-01-25T03:31:19;102757.25;;;9.91
13304;BMP280;6720;51.958;4.540;2024-01-25T03:33:44;102758.91;;;9.85
13304;BMP280;6720;51.958;4.540;2024-01-25T03:36:14;102758.91;;;9.85
13304;BMP280;6720;51.958;4.540;2024-01-25T03:38:40;102765.72;;;9.75
13304;BMP280;6720;51.958;4.540;2024-01-25T03:41:05;102772.97;;;9.90
13304;BMP280;6720;51.958;4.540;2024-01-25T03:43:31;102772.75;;;9.78
13304;BMP280;6720;51.958;4.540;2024-01-25T03:45:56;102763.72;;;9.61
13304;BMP280;6720;51.958;4.540;2024-01-25T03:48:21;102766.41;;;9.64
13304;BMP280;6720;51.958;4.540;2024-01-25T03:50:50;102764.00;;;9.76
13304;BMP280;6720;51.958;4.540;2024-01-25T03:53:15;102755.09;;;9.65
13304;BMP280;6720;51.958;4.540;2024-01-25T03:55:41;102763.97;;;9.74
13304;BMP280;6720;51.958;4.540;2024-01-25T03:58:06;102769.19;;;9.74
13304;BMP280;6720;51.958;4.540;2024-01-25T04:00:32;102765.69;;;9.74
13304;BMP280;6720;51.958;4.540;2024-01-25T04:02:58;102767.41;;;9.72
13304;BMP280;6720;51.958;4.540;2024-01-25T04:05:23;102765.41;;;9.56
13304;BMP280;6720;51.958;4.540;2024-01-25T04:07:48;102756.00;;;9.68
13304;BMP280;6720;51.958;4.540;2024-01-25T04:10:14;102765.78;;;9.78
13304;BMP280;6720;51.958;4.540;2024-01-25T04:12:39;102764.88;;;9.78
13304;BMP280;6720;51.958;4.540;2024-01-25T04:15:05;102776.47;;;9.92
13304;BMP280;6720;51.958;4.540;2024-01-25T04:17:31;102766.75;;;9.85
13304;BMP280;6720;51.958;4.540;2024-01-25T04:19:56;102772.47;;;9.63
13304;BMP280;6720;51.958;4.540;2024-01-25T04:22:22;102764.81;;;9.72
13304;BMP280;6720;51.958;4.540;2024-01-25T04:24:47;102769.94;;;9.67
13304;BMP280;6720;51.958;4.540;2024-01-25T04:27:36;102755.94;;;9.64
13304;BMP280;6720;51.958;4.540;2024-01-25T04:30:29;102757.69;;;9.65
13304;BMP280;6720;51.958;4.540;2024-01-25T04:33:16;102756.69;;;9.57
13304;BMP280;6720;51.958;4.540;2024-01-25T04:36:01;102764.34;;;9.48
13304;BMP280;6720;51.958;4.540;2024-01-25T04:52:04;102755.53;;;8.97
13304;BMP280;6720;51.958;4.540;2024-01-25T04:54:29;102759.03;;;8.99
13304;BMP280;6720;51.958;4.540;2024-01-25T04:56:54;102762.06;;;9.18
13304;BMP280;6720;51.958;4.540;2024-01-25T04:59:46;102757.00;;;9.26
13304;BMP280;6720;51.958;4.540;2024-01-25T05:02:56;102758.47;;;9.13
13304;BMP280;6720;51.958;4.540;2024-01-25T05:05:32;102763.00;;;9.22
13304;BMP280;6720;51.958;4.540;2024-01-25T05:07:57;102769.00;;;9.16
13304;BMP280;6720;51.958;4.540;2024-01-25T05:10:23;102773.66;;;9.32
13304;BMP280;6720;51.958;4.540;2024-01-25T05:12:52;102780.69;;;9.35
13304;BMP280;6720;51.958;4.540;2024-01-25T05:15:17;102784.00;;;9.28
13304;BMP280;6720;51.958;4.540;2024-01-25T05:17:42;102781.22;;;9.17
13304;BMP280;6720;51.958;4.540;2024-01-25T05:20:08;102796.28;;;9.32
13304;BMP280;6720;51.958;4.540;2024-01-25T05:22:34;102801.94;;;9.10
13304;BMP280;6720;51.958;4.540;2024-01-25T05:25:05;102806.34;;;9.11
13304;BMP280;6720;51.958;4.540;2024-01-25T05:27:31;102803.78;;;9.15
13304;BMP280;6720;51.958;4.540;2024-01-25T05:29:56;102810.09;;;9.25
13304;BMP280;6720;51.958;4.540;2024-01-25T05:32:22;102797.50;;;9.06
13304;BMP280;6720;51.958;4.540;2024-01-25T05:34:48;102803.72;;;9.12
13304;BMP280;6720;51.958;4.540;2024-01-25T05:37:14;102795.88;;;9.11
13304;BMP280;6720;51.958;4.540;2024-01-25T05:40:03;102793.94;;;9.01
13304;BMP280;6720;51.958;4.540;2024-01-25T05:43:03;102790.44;;;9.02
13304;BMP280;6720;51.958;4.540;2024-01-25T05:46:20;102790.59;;;9.08
13304;BMP280;6720;51.958;4.540;2024-01-25T05:48:54;102788.69;;;9.01
13304;BMP280;6720;51.958;4.540;2024-01-25T05:51:20;102793.94;;;9.01
13304;BMP280;6720;51.958;4.540;2024-01-25T05:53:45;102786.09;;;9.01
13304;BMP280;6720;51.958;4.540;2024-01-25T05:56:11;102782.25;;;8.85
13304;BMP280;6720;51.958;4.540;2024-01-25T05:58:37;102798.56;;;8.74
13304;BMP280;6720;51.958;4.540;2024-01-25T06:01:02;102802.97;;;8.76
13304;BMP280;6720;51.958;4.540;2024-01-25T06:03:28;102804.03;;;8.84
13304;BMP280;6720;51.958;4.540;2024-01-25T06:05:53;102819.00;;;8.93
13304;BMP280;6720;51.958;4.540;2024-01-25T06:08:19;102811.28;;;8.99
13304;BMP280;6720;51.958;4.540;2024-01-25T06:10:44;102803.28;;;8.90
13304;BMP280;6720;51.958;4.540;2024-01-25T06:13:10;102795.09;;;8.75
13304;BMP280;6720;51.958;4.540;2024-01-25T06:15:35;102803.03;;;8.41
13304;BMP280;6720;51.958;4.540;2024-01-25T06:18:00;102803.97;;;8.44
13304;BMP280;6720;51.958;4.540;2024-01-25T06:20:26;102810.28;;;8.54
13304;BMP280;6720;51.958;4.540;2024-01-25T06:22:51;102813.81;;;8.56
13304;BMP280;6720;51.958;4.540;2024-01-25T06:25:17;102816.59;;;8.62
13304;BMP280;6720;51.958;4.540;2024-01-25T06:27:42;102816.47;;;8.57
13304;BMP280;6720;51.958;4.540;2024-01-25T06:30:09;102806.16;;;8.63
13304;BMP280;6720;51.958;4.540;2024-01-25T06:32:34;102794.56;;;8.51
13304;BMP280;6720;51.958;4.540;2024-01-25T06:35:00;102799.00;;;8.55
13304;BMP280;6720;51.958;4.540;2024-01-25T06:37:25;102789.69;;;8.66
13304;BMP280;6720;51.958;4.540;2024-01-25T06:39:52;102801.72;;;8.58
13304;BMP280;6720;51.958;4.540;2024-01-25T06:42:17;102807.97;;;8.66
13304;BMP280;6720;51.958;4.540;2024-01-25T06:44:43;102814.16;;;8.71
13304;BMP280;6720;51.958;4.540;2024-01-25T06:47:09;102812.06;;;8.55
13304;BMP280;6720;51.958;4.540;2024-01-25T06:49:35;102810.34;;;8.57
13304;BMP280;6720;51.958;4.540;2024-01-25T06:52:00;102808.53;;;8.53
13304;BMP280;6720;51.958;4.540;2024-01-25T06:54:26;102804.34;;;8.24
13304;BMP280;6720;51.958;4.540;2024-01-25T06:56:51;102794.28;;;8.39
13304;BMP280;6720;51.958;4.540;2024-01-25T06:59:17;102794.06;;;8.30
13304;BMP280;6720;51.958;4.540;2024-01-25T07:01:42;102808.25;;;8.41
13304;BMP280;6720;51.958;4.540;2024-01-25T07:04:08;102802.09;;;8.37
13304;BMP280;6720;51.958;4.540;2024-01-25T07:06:33;102812.00;;;8.52
13304;BMP280;6720;51.958;4.540;2024-01-25T07:08:59;102813.81;;;8.56
13304;BMP280;6720;51.958;4.540;2024-01-25T07:11:24;102809.53;;;8.58
13304;BMP280;6720;51.958;4.540;2024-01-25T07:13:51;102811.63;;;8.37
13304;BMP280;6720;51.958;4.540;2024-01-25T07:16:16;102812.94;;;8.55
13304;BMP280;6720;51.958;4.540;2024-01-25T07:18:41;102809.66;;;8.64
13304;BMP280;6720;51.958;4.540;2024-01-25T07:21:07;102814.94;;;8.67
13304;BMP280;6720;51.958;4.540;2024-01-25T07:23:33;102822.78;;;8.67
13304;BMP280;6720;51.958;4.540;2024-01-25T07:25:59;102822.84;;;8.70
13304;BMP280;6720;51.958;4.540;2024-01-25T07:28:24;102821.94;;;8.68
13304;BMP280;6720;51.958;4.540;2024-01-25T07:30:50;102824.63;;;8.71
13304;BMP280;6720;51.958;4.540;2024-01-25T07:33:16;102819.53;;;8.77
13304;BMP280;6720;51.958;4.540;2024-01-25T07:35:43;102816.75;;;8.69
13304;BMP280;6720;51.958;4.540;2024-01-25T07:38:12;102805.75;;;8.84
13304;BMP280;6720;51.958;4.540;2024-01-25T07:40:37;102806.44;;;8.75
13304;BMP280;6720;51.958;4.540;2024-01-25T07:43:03;102811.44;;;8.66
13304;BMP280;6720;51.958;4.540;2024-01-25T07:45:28;102816.72;;;8.68
13304;BMP280;6720;51.958;4.540;2024-01-25T07:47:54;102831.47;;;8.66
13304;BMP280;6720;51.958;4.540;2024-01-25T07:50:19;102838.53;;;8.70
13304;BMP280;6720;51.958;4.540;2024-01-25T07:52:45;102836.03;;;8.76
13304;BMP280;6720;51.958;4.540;2024-01-25T07:55:10;102827.81;;;8.58
13304;BMP280;6720;51.958;4.540;2024-01-25T07:57:36;102806.47;;;8.78
13304;BMP280;6720;51.958;4.540;2024-01-25T08:00:01;102779.75;;;8.90
13304;BMP280;6720;51.958;4.540;2024-01-25T08:02:27;102793.81;;;8.96
13304;BMP280;6720;51.958;4.540;2024-01-25T08:04:52;102799.84;;;8.92
13304;BMP280;6720;51.958;4.540;2024-01-25T08:07:18;102807.84;;;8.61
13304;BMP280;6720;51.958;4.540;2024-01-25T08:09:44;102795.94;;;8.72
13304;BMP280;6720;51.958;4.540;2024-01-25T08:12:10;102802.16;;;8.79
13304;BMP280;6720;51.958;4.540;2024-01-25T08:14:36;102814.31;;;8.77
13304;BMP280;6720;51.958;4.540;2024-01-25T08:17:01;102810.47;;;8.61
13304;BMP280;6720;51.958;4.540;2024-01-25T08:19:27;102805.28;;;8.63
13304;BMP280;6720;51.958;4.540;2024-01-25T08:21:52;102813.97;;;8.62
13304;BMP280;6720;51.958;4.540;2024-01-25T08:24:18;102807.53;;;8.85
13304;BMP280;6720;51.958;4.540;2024-01-25T08:26:43;102813.97;;;9.02
13304;BMP280;6720;51.958;4.540;2024-01-25T08:29:10;102811.56;;;9.11
13304;BMP280;6720;51.958;4.540;2024-01-25T08:31:37;102807.16;;;9.10
13304;BMP280;6720;51.958;4.540;2024-01-25T08:34:02;102809.25;;;9.26
13304;BMP280;6720;51.958;4.540;2024-01-25T08:36:28;102813.69;;;9.30
13304;BMP280;6720;51.958;4.540;2024-01-25T08:38:53;102816.22;;;9.25
13304;BMP280;6720;51.958;4.540;2024-01-25T08:41:18;102809.44;;;9.35
13304;BMP280;6720;51.958;4.540;2024-01-25T08:43:44;102812.03;;;9.35
13304;BMP280;6720;51.958;4.540;2024-01-25T08:46:13;102811.34;;;9.43
13304;BMP280;6720;51.958;4.540;2024-01-25T08:48:39;102811.91;;;9.29
13304;BMP280;6720;51.958;4.540;2024-01-25T08:51:05;102824.19;;;9.33
13304;BMP280;6720;51.958;4.540;2024-01-25T08:53:31;102814.78;;;9.42
13304;BMP280;6720;51.958;4.540;2024-01-25T08:55:56;102807.25;;;9.59
13304;BMP280;6720;51.958;4.540;2024-01-25T08:58:22;102815.41;;;9.75
13304;BMP280;6720;51.958;4.540;2024-01-25T09:00:48;102810.34;;;9.83
13304;BMP280;6720;51.958;4.540;2024-01-25T09:03:16;102802.00;;;10.05
13304;BMP280;6720;51.958;4.540;2024-01-25T09:05:42;102795.72;;;9.97
13304;BMP280;6720;51.958;4.540;2024-01-25T09:08:12;102795.28;;;9.71
13304;BMP280;6720;51.958;4.540;2024-01-25T09:10:38;102795.66;;;9.43
13304;BMP280;6720;51.958;4.540;2024-01-25T09:13:04;102786.97;;;9.44
13304;BMP280;6720;51.958;4.540;2024-01-25T09:15:29;102782.50;;;9.39
13304;BMP280;6720;51.958;4.540;2024-01-25T09:17:55;102788.13;;;9.60
13304;BMP280;6720;51.958;4.540;2024-01-25T09:20:20;102784.09;;;9.31
13304;BMP280;6720;51.958;4.540;2024-01-25T09:22:46;102792.25;;;9.47
13304;BMP280;6720;51.958;4.540;2024-01-25T09:25:11;102790.56;;;9.51
13304;BMP280;6720;51.958;4.540;2024-01-25T09:27:37;102788.94;;;9.56
13304;BMP280;6720;51.958;4.540;2024-01-25T09:30:04;102785.84;;;9.79
13304;BMP280;6720;51.958;4.540;2024-01-25T09:32:30;102792.88;;;9.80
13304;BMP280;6720;51.958;4.540;2024-01-25T09:34:55;102792.88;;;9.36
13304;BMP280;6720;51.958;4.540;2024-01-25T09:37:21;102793.09;;;9.48
13304;BMP280;6720;51.958;4.540;2024-01-25T09:39:49;102798.63;;;9.61
13304;BMP280;6720;51.958;4.540;2024-01-25T09:42:14;102790.31;;;9.85
13304;BMP280;6720;51.958;4.540;2024-01-25T09:44:41;102785.06;;;9.85
13304;BMP280;6720;51.958;4.540;2024-01-25T09:47:06;102782.13;;;9.67
13304;BMP280;6720;51.958;4.540;2024-01-25T09:49:32;102779.22;;;9.49
13304;BMP280;6720;51.958;4.540;2024-01-25T09:52:01;102779.78;;;9.80
13304;BMP280;6720;51.958;4.540;2024-01-25T09:54:31;102778.03;;;9.81
13304;BMP280;6720;51.958;4.540;2024-01-25T09:56:59;102767.63;;;9.84
13304;BMP280;6720;51.958;4.540;2024-01-25T09:59:26;102773.72;;;9.83
13304;BMP280;6720;51.958;4.540;2024-01-25T10:01:53;102774.72;;;9.91
13304;BMP280;6720;51.958;4.540;2024-01-25T10:04:18;102777.13;;;9.79
13304;BMP280;6720;51.958;4.540;2024-01-25T10:06:47;102772.72;;;9.75
13304;BMP280;6720;51.958;4.540;2024-01-25T10:09:13;102753.53;;;9.76
13304;BMP280;6720;51.958;4.540;2024-01-25T10:11:39;102758.28;;;9.99
13304;BMP280;6720;51.958;4.540;2024-01-25T10:14:05;102757.34;;;9.96
13304;BMP280;6720;51.958;4.540;2024-01-25T10:16:31;102766.47;;;10.19
13304;BMP280;6720;51.958;4.540;2024-01-25T10:18:57;102767.25;;;10.13
13304;BMP280;6720;51.958;4.540;2024-01-25T10:21:23;102772.84;;;10.34
13304;BMP280;6720;51.958;4.540;2024-01-25T10:23:48;102774.50;;;10.29
13304;BMP280;6720;51.958;4.540;2024-01-25T10:26:15;102771.91;;;10.32
13304;BMP280;6720;51.958;4.540;2024-01-25T10:28:41;102778.75;;;10.23
13304;BMP280;6720;51.958;4.540;2024-01-25T10:31:07;102782.09;;;10.13
13304;BMP280;6720;51.958;4.540;2024-01-25T10:33:34;102783.25;;;10.31
13304;BMP280;6720;51.958;4.540;2024-01-25T10:36:00;102793.94;;;9.93
13304;BMP280;6720;51.958;4.540;2024-01-25T10:38:33;102778.19;;;9.90
13304;BMP280;6720;51.958;4.540;2024-01-25T10:41:01;102788.69;;;9.93
13304;BMP280;6720;51.958;4.540;2024-01-25T10:43:28;102790.72;;;10.06
13304;BMP280;6720;51.958;4.540;2024-01-25T10:45:56;102778.97;;;10.35
13304;BMP280;6720;51.958;4.540;2024-01-25T10:48:23;102766.72;;;10.34
13304;BMP280;6720;51.958;4.540;2024-01-25T10:50:49;102772.53;;;10.16
13304;BMP280;6720;51.958;4.540;2024-01-25T10:53:18;102764.31;;;9.94
13304;BMP280;6720;51.958;4.540;2024-01-25T10:55:44;102758.88;;;10.35
13304;BMP280;6720;51.958;4.540;2024-01-25T10:58:13;102741.50;;;10.39
13304;BMP280;6720;51.958;4.540;2024-01-25T11:00:38;102737.53;;;10.08
13304;BMP280;6720;51.958;4.540;2024-01-25T11:03:05;102723.16;;;10.39
13304;BMP280;6720;51.958;4.540;2024-01-25T11:05:31;102723.44;;;10.60
13304;BMP280;6720;51.958;4.540;2024-01-25T11:07:57;102729.13;;;10.30
13304;BMP280;6720;51.958;4.540;2024-01-25T11:10:26;102729.59;;;10.63
13304;BMP280;6720;51.958;4.540;2024-01-25T11:13:01;102727.50;;;10.38
13304;BMP280;6720;51.958;4.540;2024-01-25T11:15:34;102718.94;;;10.50
13304;BMP280;6720;51.958;4.540;2024-01-25T11:18:03;102732.91;;;10.50
13304;BMP280;6720;51.958;4.540;2024-01-25T11:20:31;102733.16;;;10.68
13304;BMP280;6720;51.958;4.540;2024-01-25T11:23:05;102728.81;;;10.69
13304;BMP280;6720;51.958;4.540;2024-01-25T11:25:33;102721.38;;;10.38
13304;BMP280;6720;51.958;4.540;2024-01-25T11:28:00;102723.63;;;10.75
13304;BMP280;6720;51.958;4.540;2024-01-25T11:30:27;102720.97;;;10.72
13304;BMP280;6720;51.958;4.540;2024-01-25T11:32:53;102719.56;;;11.01
13304;BMP280;6720;51.958;4.540;2024-01-25T11:35:19;102701.22;;;11.01
13304;BMP280;6720;51.958;4.540;2024-01-25T11:37:46;102709.22;;;11.13
13304;BMP280;6720;51.958;4.540;2024-01-25T11:40:13;102689.19;;;11.18
13304;BMP280;6720;51.958;4.540;2024-01-25T11:42:39;102688.19;;;11.10
13304;BMP280;6720;51.958;4.540;2024-01-25T11:45:08;102674.28;;;11.15
13304;BMP280;6720;51.958;4.540;2024-01-25T11:47:34;102669.97;;;11.19
13304;BMP280;6720;51.958;4.540;2024-01-25T11:50:00;102662.97;;;11.21
13304;BMP280;6720;51.958;4.540;2024-01-25T11:52:27;102649.63;;;10.97
13304;BMP280;6720;51.958;4.540;2024-01-25T11:54:53;102652.25;;;10.97
13304;BMP280;6720;51.958;4.540;2024-01-25T11:57:19;102651.47;;;11.04
13304;BMP280;6720;51.958;4.540;2024-01-25T11:59:45;102658.69;;;11.27
13304;BMP280;6720;51.958;4.540;2024-01-25T12:02:12;102648.19;;;11.29
13304;BMP280;6720;51.958;4.540;2024-01-25T12:04:39;102642.94;;;11.26
13304;BMP280;6720;51.958;4.540;2024-01-25T12:07:04;102635.53;;;11.80
13304;BMP280;6720;51.958;4.540;2024-01-25T12:09:30;102630.09;;;11.59
13304;BMP280;6720;51.958;4.540;2024-01-25T12:11:55;102624.03;;;11.62
13304;BMP280;6720;51.958;4.540;2024-01-25T12:14:21;102619.78;;;11.80
13304;BMP280;6720;51.958;4.540;2024-01-25T12:16:49;102621.25;;;11.45
13304;BMP280;6720;51.958;4.540;2024-01-25T12:19:14;102623.91;;;11.53
13304;BMP280;6720;51.958;4.540;2024-01-25T12:21:43;102605.75;;;11.75
13304;BMP280;6720;51.958;4.540;2024-01-25T12:24:09;102603.91;;;11.62
13304;BMP280;6720;51.958;4.540;2024-01-25T12:26:35;102599.63;;;11.73
13304;BMP280;6720;51.958;4.540;2024-01-25T12:29:01;102590.69;;;11.50
13304;BMP280;6720;51.958;4.540;2024-01-25T12:31:28;102585.63;;;11.71
13304;BMP280;6720;51.958;4.540;2024-01-25T12:33:54;102580.56;;;12.03
13304;BMP280;6720;51.958;4.540;2024-01-25T12:36:19;102570.78;;;11.79
13304;BMP280;6720;51.958;4.540;2024-01-25T12:38:45;102571.75;;;11.96
13304;BMP280;6720;51.958;4.540;2024-01-25T12:41:10;102564.78;;;12.00
13304;BMP280;6720;51.958;4.540;2024-01-25T12:43:36;102568.94;;;11.66
13304;BMP280;6720;51.958;4.540;2024-01-25T12:46:01;102560.31;;;11.85
13304;BMP280;6720;51.958;4.540;2024-01-25T12:48:27;102562.19;;;12.07
13304;BMP280;6720;51.958;4.540;2024-01-25T12:50:52;102558.69;;;12.11
13304;BMP280;6720;51.958;4.540;2024-01-25T12:53:18;102557.03;;;12.37
13304;BMP280;6720;51.958;4.540;2024-01-25T12:55:43;102551.72;;;12.22
13304;BMP280;6720;51.958;4.540;2024-01-25T12:58:09;102556.03;;;12.08
13304;BMP280;6720;51.958;4.540;2024-01-25T13:00:35;102545.47;;;11.93
13304;BMP280;6720;51.958;4.540;2024-01-25T13:03:00;102551.75;;;12.25
13304;BMP280;6720;51.958;4.540;2024-01-25T13:05:29;102539.44;;;12.15
13304;BMP280;6720;51.958;4.540;2024-01-25T13:07:54;102532.53;;;12.44
13304;BMP280;6720;51.958;4.540;2024-01-25T13:10:20;102537.84;;;12.65
13304;BMP280;6720;51.958;4.540;2024-01-25T13:12:45;102542.13;;;12.24
13304;BMP280;6720;51.958;4.540;2024-01-25T13:15:11;102531.59;;;12.21
13304;BMP280;6720;51.958;4.540;2024-01-25T13:17:37;102523.75;;;12.33
13304;BMP280;6720;51.958;4.540;2024-01-25T13:20:06;102517.56;;;12.19
13304;BMP280;6720;51.958;4.540;2024-01-25T13:22:33;102515.91;;;12.48
13304;BMP280;6720;51.958;4.540;2024-01-25T13:25:00;102512.34;;;12.22
13304;BMP280;6720;51.958;4.540;2024-01-25T13:27:25;102513.31;;;12.54
13304;BMP280;6720;51.958;4.540;2024-01-25T13:29:53;102513.34;;;12.81
13304;BMP280;6720;51.958;4.540;2024-01-25T13:32:22;102521.16;;;12.50
13304;BMP280;6720;51.958;4.540;2024-01-25T13:34:48;102515.06;;;12.60
13304;BMP280;6720;51.958;4.540;2024-01-25T13:37:14;102509.69;;;12.19
13304;BMP280;6720;51.958;4.540;2024-01-25T13:39:39;102495.69;;;12.14
13304;BMP280;6720;51.958;4.540;2024-01-25T13:42:05;102488.72;;;12.33
13304;BMP280;6720;51.958;4.540;2024-01-25T13:44:30;102482.63;;;12.35
13304;BMP280;6720;51.958;4.540;2024-01-25T13:46:56;102469.41;;;12.08
13304;BMP280;6720;51.958;4.540;2024-01-25T13:49:22;102458.00;;;11.94
13304;BMP280;6720;51.958;4.540;2024-01-25T13:51:47;102448.47;;;12.32
13304;BMP280;6720;51.958;4.540;2024-01-25T13:54:12;102443.22;;;12.32
13304;BMP280;6720;51.958;4.540;2024-01-25T13:56:38;102428.31;;;12.28
13304;BMP280;6720;51.958;4.540;2024-01-25T13:59:05;102437.91;;;12.08
13304;BMP280;6720;51.958;4.540;2024-01-25T14:01:30;102450.06;;;11.76
13304;BMP280;6720;51.958;4.540;2024-01-25T14:03:56;102445.66;;;11.72
13304;BMP280;6720;51.958;4.540;2024-01-25T14:06:21;102442.25;;;11.99
13304;BMP280;6720;51.958;4.540;2024-01-25T14:08:47;102446.66;;;12.06
13304;BMP280;6720;51.958;4.540;2024-01-25T14:11:12;102444.06;;;12.34
13304;BMP280;6720;51.958;4.540;2024-01-25T14:13:37;102444.94;;;12.18
13304;BMP280;6720;51.958;4.540;2024-01-25T14:16:03;102437.09;;;12.59
13304;BMP280;6720;51.958;4.540;2024-01-25T14:18:28;102444.00;;;12.04
13304;BMP280;6720;51.958;4.540;2024-01-25T14:20:57;102443.16;;;12.10
13304;BMP280;6720;51.958;4.540;2024-01-25T14:23:22;102448.44;;;12.23
13304;BMP280;6720;51.958;4.540;2024-01-25T14:25:48;102444.09;;;12.36
13304;BMP280;6720;51.958;4.540;2024-01-25T14:28:13;102445.78;;;12.11
13304;BMP280;6720;51.958;4.540;2024-01-25T14:30:38;102441.47;;;12.40
13304;BMP280;6720;51.958;4.540;2024-01-25T14:33:04;102433.59;;;12.58
13304;BMP280;6720;51.958;4.540;2024-01-25T14:35:29;102438.84;;;12.51
13304;BMP280;6720;51.958;4.540;2024-01-25T14:37:56;102444.97;;;12.47